createdAt,value
2024-01-16T00:00:58.732Z,29.10
2024-01-16T00:02:05.298Z,29.10
2024-01-16T00:03:12.186Z,29.10
2024-01-16T00:04:18.220Z,29.10
2024-01-16T00:05:23.697Z,29.10
2024-01-16T00:06:32.361Z,29.10
2024-01-16T00:07:37.993Z,29.00
2024-01-16T00:08:42.697Z,29.10
2024-01-16T00:09:47.064Z,29.00
2024-01-16T00:10:53.454Z,29.10
2024-01-16T00:11:56.754Z,29.00
2024-01-16T00:13:05.059Z,29.10
2024-01-16T00:14:08.224Z,29.10
2024-01-16T00:15:14.284Z,29.10
2024-01-16T00:16:19.073Z,29.10
2024-01-16T00:17:23.982Z,29.00
2024-01-16T00:18:40.061Z,29.00
2024-01-16T00:19:44.695Z,29.10
2024-01-16T00:20:49.371Z,29.00
2024-01-16T00:21:53.938Z,29.10
2024-01-16T00:22:58.380Z,29.00
2024-01-16T00:24:08.328Z,29.00
2024-01-16T00:25:14.797Z,29.10
2024-01-16T00:26:24.814Z,29.00
2024-01-16T00:27:28.440Z,29.00
2024-01-16T00:28:34.211Z,29.00
2024-01-16T00:29:44.088Z,29.00
2024-01-16T00:30:47.743Z,29.10
2024-01-16T00:31:52.393Z,29.00
2024-01-16T00:32:57.659Z,29.00
2024-01-16T00:34:03.553Z,29.10
2024-01-16T00:35:09.357Z,29.00
2024-01-16T00:36:12.709Z,29.00
2024-01-16T00:37:18.364Z,29.00
2024-01-16T00:38:26.684Z,29.00
2024-01-16T00:39:30.617Z,29.10
2024-01-16T00:40:34.931Z,29.00
2024-01-16T00:41:39.446Z,29.00
2024-01-16T00:42:45.292Z,29.00
2024-01-16T00:43:50.815Z,29.00
2024-01-16T00:44:55.690Z,29.00
2024-01-16T00:45:58.960Z,29.00
2024-01-16T00:47:03.259Z,29.00
2024-01-16T00:48:18.820Z,29.00
2024-01-16T00:49:24.256Z,29.00
2024-01-16T00:50:33.388Z,29.00
2024-01-16T00:51:37.658Z,29.00
2024-01-16T00:52:52.412Z,29.00
2024-01-16T00:54:00.183Z,29.00
2024-01-16T00:56:29.375Z,29.10
2024-01-16T00:57:37.123Z,29.00
2024-01-16T00:58:42.764Z,29.00
2024-01-16T00:59:51.304Z,29.00
2024-01-16T01:00:58.503Z,29.00
2024-01-16T01:02:02.715Z,29.00
2024-01-16T01:03:10.933Z,29.00
2024-01-16T01:04:15.407Z,29.00
2024-01-16T01:05:19.970Z,29.00
2024-01-16T01:06:30.547Z,29.00
2024-01-16T01:07:35.851Z,29.10
2024-01-16T01:08:42.352Z,29.00
2024-01-16T01:09:49.511Z,29.00
2024-01-16T01:10:54.621Z,29.00
2024-01-16T01:11:59.439Z,29.00
2024-01-16T01:13:04.571Z,29.00
2024-01-16T01:14:08.949Z,29.00
2024-01-16T01:15:14.938Z,29.00
2024-01-16T01:16:21.309Z,29.00
2024-01-16T01:17:24.506Z,29.00
2024-01-16T01:18:28.941Z,29.00
2024-01-16T01:19:35.464Z,29.00
2024-01-16T01:20:41.942Z,29.00
2024-01-16T01:21:47.861Z,29.00
2024-01-16T01:22:53.195Z,29.00
2024-01-16T01:23:57.419Z,29.00
2024-01-16T01:25:02.277Z,29.00
2024-01-16T01:26:06.393Z,29.00
2024-01-16T01:28:30.596Z,29.00
2024-01-16T01:29:38.600Z,29.00
2024-01-16T01:30:44.470Z,29.00
2024-01-16T01:31:50.123Z,29.00
2024-01-16T01:32:55.257Z,29.00
2024-01-16T01:34:02.148Z,29.00
2024-01-16T01:35:06.893Z,29.00
2024-01-16T01:36:14.319Z,29.00
2024-01-16T01:37:20.030Z,29.00
2024-01-16T01:38:28.668Z,29.00
2024-01-16T01:39:39.841Z,29.00
2024-01-16T01:40:44.862Z,29.00
2024-01-16T01:41:49.687Z,29.00
2024-01-16T01:42:54.494Z,29.00
2024-01-16T01:44:03.456Z,29.00
2024-01-16T01:45:12.940Z,29.00
2024-01-16T01:46:26.928Z,29.00
2024-01-16T01:47:34.105Z,29.00
2024-01-16T01:48:39.473Z,28.90
2024-01-16T01:49:43.898Z,28.90
2024-01-16T01:51:01.878Z,29.00
2024-01-16T01:52:07.548Z,28.90
2024-01-16T01:53:12.252Z,29.00
2024-01-16T01:54:16.990Z,29.00
2024-01-16T01:55:22.119Z,29.00
2024-01-16T01:56:26.104Z,28.90
2024-01-16T01:57:35.332Z,28.90
2024-01-16T01:58:40.280Z,28.90
2024-01-16T01:59:44.489Z,29.40
2024-01-16T02:00:48.129Z,29.00
2024-01-16T02:01:57.186Z,29.00
2024-01-16T02:03:04.860Z,28.90
2024-01-16T02:04:09.189Z,28.90
2024-01-16T02:05:14.442Z,28.90
2024-01-16T02:06:20.542Z,28.90
2024-01-16T02:07:25.913Z,28.90
2024-01-16T02:08:31.630Z,29.00
2024-01-16T02:09:38.853Z,29.00
2024-01-16T02:10:47.212Z,29.00
2024-01-16T02:11:51.666Z,29.00
2024-01-16T02:12:58.188Z,28.90
2024-01-16T02:14:04.280Z,28.90
2024-01-16T02:15:11.536Z,28.90
2024-01-16T02:17:45.493Z,28.90
2024-01-16T02:18:52.107Z,28.90
2024-01-16T02:19:57.890Z,28.90
2024-01-16T02:21:04.624Z,28.90
2024-01-16T02:22:14.583Z,28.90
2024-01-16T02:23:30.524Z,28.90
2024-01-16T02:24:37.185Z,28.90
2024-01-16T02:25:43.920Z,28.90
2024-01-16T02:26:53.103Z,29.00
2024-01-16T02:27:57.862Z,28.90
2024-01-16T02:29:06.131Z,28.90
2024-01-16T02:30:09.837Z,28.90
2024-01-16T02:31:15.213Z,28.90
2024-01-16T02:32:19.630Z,28.90
2024-01-16T02:33:25.438Z,28.90
2024-01-16T02:34:34.209Z,28.90
2024-01-16T02:35:42.671Z,28.90
2024-01-16T02:36:46.609Z,28.90
2024-01-16T02:37:50.533Z,28.90
2024-01-16T02:38:54.653Z,28.90
2024-01-16T02:39:59.024Z,28.90
2024-01-16T02:41:05.445Z,28.90
2024-01-16T02:42:10.176Z,28.90
2024-01-16T02:43:13.934Z,28.90
2024-01-16T02:44:19.243Z,28.90
2024-01-16T02:45:22.761Z,28.90
2024-01-16T02:46:26.301Z,28.90
2024-01-16T02:47:31.395Z,28.90
2024-01-16T02:48:35.940Z,28.90
2024-01-16T02:49:44.201Z,28.90
2024-01-16T02:50:52.788Z,28.90
2024-01-16T02:51:57.126Z,28.90
2024-01-16T02:53:00.549Z,28.90
2024-01-16T02:54:06.645Z,28.90
2024-01-16T02:55:11.655Z,28.90
2024-01-16T02:56:18.265Z,28.90
2024-01-16T02:57:21.512Z,28.90
2024-01-16T02:58:25.449Z,29.30
2024-01-16T02:59:34.892Z,28.90
2024-01-16T03:00:40.605Z,28.90
2024-01-16T03:01:44.778Z,28.90
2024-01-16T03:02:49.330Z,28.90
2024-01-16T03:03:54.386Z,28.90
2024-01-16T03:05:00.855Z,28.90
2024-01-16T03:06:08.096Z,28.90
2024-01-16T03:07:14.328Z,28.90
2024-01-16T03:08:18.188Z,28.90
2024-01-16T03:09:22.177Z,28.90
2024-01-16T03:10:27.986Z,28.90
2024-01-16T03:11:35.785Z,28.90
2024-01-16T03:12:39.990Z,28.90
2024-01-16T03:13:43.963Z,28.90
2024-01-16T03:14:48.538Z,28.90
2024-01-16T03:15:53.815Z,28.80
2024-01-16T03:16:57.738Z,28.80
2024-01-16T03:18:02.760Z,28.80
2024-01-16T03:19:07.897Z,28.80
2024-01-16T03:20:12.450Z,28.80
2024-01-16T03:21:21.730Z,28.80
2024-01-16T03:22:27.171Z,28.80
2024-01-16T03:23:31.765Z,28.80
2024-01-16T03:24:39.956Z,28.90
2024-01-16T03:25:45.402Z,28.80
2024-01-16T03:26:53.651Z,28.80
2024-01-16T03:27:59.856Z,28.80
2024-01-16T03:29:17.034Z,28.80
2024-01-16T03:30:22.961Z,28.80
2024-01-16T03:31:27.940Z,28.80
2024-01-16T03:32:34.512Z,28.80
2024-01-16T03:33:43.895Z,28.90
2024-01-16T03:34:53.885Z,28.90
2024-01-16T03:36:00.800Z,28.80
2024-01-16T03:37:05.088Z,28.80
2024-01-16T03:38:12.444Z,28.80
2024-01-16T03:39:19.863Z,28.80
2024-01-16T03:40:24.673Z,28.80
2024-01-16T03:41:30.857Z,29.30
2024-01-16T03:42:34.891Z,28.80
2024-01-16T03:43:39.763Z,28.80
2024-01-16T03:44:48.404Z,28.90
2024-01-16T03:45:52.345Z,28.80
2024-01-16T03:47:02.024Z,28.80
2024-01-16T03:48:07.426Z,28.80
2024-01-16T03:49:15.352Z,28.80
2024-01-16T03:50:19.228Z,28.80
2024-01-16T03:51:25.106Z,28.80
2024-01-16T03:52:30.841Z,28.80
2024-01-16T03:53:35.325Z,28.80
2024-01-16T03:54:40.145Z,28.80
2024-01-16T03:55:48.216Z,28.80
2024-01-16T03:56:56.892Z,28.80
2024-01-16T03:58:00.719Z,28.80
2024-01-16T03:59:11.899Z,28.80
2024-01-16T04:00:17.409Z,28.80
2024-01-16T04:01:32.760Z,28.80
2024-01-16T04:02:39.925Z,28.80
2024-01-16T04:03:46.098Z,28.80
2024-01-16T04:04:53.898Z,28.80
2024-01-16T04:06:01.657Z,28.80
2024-01-16T04:07:06.666Z,28.80
2024-01-16T04:08:11.854Z,28.80
2024-01-16T04:09:18.298Z,28.80
2024-01-16T04:10:22.421Z,28.80
2024-01-16T04:11:27.191Z,28.80
2024-01-16T04:12:32.893Z,28.80
2024-01-16T04:13:37.069Z,28.80
2024-01-16T04:14:42.722Z,28.80
2024-01-16T04:15:52.553Z,28.80
2024-01-16T04:16:57.077Z,28.80
2024-01-16T04:18:01.911Z,28.80
2024-01-16T04:19:07.031Z,28.80
2024-01-16T04:20:11.022Z,28.80
2024-01-16T04:21:18.017Z,28.80
2024-01-16T04:22:29.026Z,28.80
2024-01-16T04:23:34.870Z,28.80
2024-01-16T04:24:38.700Z,28.70
2024-01-16T04:25:45.388Z,28.80
2024-01-16T04:26:52.120Z,28.70
2024-01-16T04:27:57.275Z,28.70
2024-01-16T04:29:03.070Z,28.70
2024-01-16T04:30:09.434Z,28.70
2024-01-16T04:31:13.304Z,28.70
2024-01-16T04:32:17.812Z,28.70
2024-01-16T04:33:24.494Z,28.70
2024-01-16T04:34:32.795Z,28.70
2024-01-16T04:35:36.684Z,28.70
2024-01-16T04:36:47.213Z,29.20
2024-01-16T04:37:51.514Z,28.70
2024-01-16T04:39:00.893Z,28.70
2024-01-16T04:40:06.846Z,28.70
2024-01-16T04:41:11.418Z,28.70
2024-01-16T04:42:17.881Z,28.70
2024-01-16T04:43:23.421Z,28.70
2024-01-16T04:44:33.598Z,28.70
2024-01-16T04:45:45.040Z,28.70
2024-01-16T04:46:52.113Z,28.70
2024-01-16T04:47:56.106Z,28.70
2024-01-16T04:49:03.325Z,28.70
2024-01-16T04:50:15.528Z,28.70
2024-01-16T04:51:20.764Z,28.70
2024-01-16T04:52:29.484Z,28.70
2024-01-16T04:53:33.250Z,28.70
2024-01-16T04:54:38.155Z,28.70
2024-01-16T04:55:44.842Z,28.70
2024-01-16T04:57:06.552Z,28.70
2024-01-16T04:58:32.092Z,28.70
2024-01-16T04:59:38.267Z,28.70
2024-01-16T05:00:42.044Z,28.70
2024-01-16T05:01:47.603Z,28.70
2024-01-16T05:02:54.864Z,28.70
2024-01-16T05:04:02.475Z,28.70
2024-01-16T05:05:07.853Z,28.70
2024-01-16T05:06:18.835Z,28.70
2024-01-16T05:07:25.787Z,28.70
2024-01-16T05:08:38.173Z,28.70
2024-01-16T05:09:44.443Z,29.10
2024-01-16T05:10:50.898Z,28.70
2024-01-16T05:13:25.386Z,28.70
2024-01-16T05:14:34.270Z,28.70
2024-01-16T05:15:40.205Z,28.70
2024-01-16T05:16:47.097Z,28.70
2024-01-16T05:17:54.872Z,28.70
2024-01-16T05:19:00.906Z,28.70
2024-01-16T05:20:10.232Z,28.70
2024-01-16T05:21:18.312Z,28.70
2024-01-16T05:22:26.861Z,28.70
2024-01-16T05:23:32.789Z,28.70
2024-01-16T05:24:36.520Z,28.70
2024-01-16T05:25:41.389Z,28.70
2024-01-16T05:26:48.774Z,28.70
2024-01-16T05:27:54.355Z,28.70
2024-01-16T05:29:00.479Z,28.70
2024-01-16T05:30:06.170Z,28.70
2024-01-16T05:31:10.130Z,28.70
2024-01-16T05:32:17.218Z,28.70
2024-01-16T05:33:29.148Z,28.70
2024-01-16T05:34:46.018Z,28.70
2024-01-16T05:35:54.357Z,28.70
2024-01-16T05:37:01.144Z,28.70
2024-01-16T05:38:06.845Z,28.70
2024-01-16T05:39:12.046Z,28.80
2024-01-16T05:40:17.093Z,28.80
2024-01-16T05:41:23.439Z,28.80
2024-01-16T05:42:29.826Z,28.80
2024-01-16T05:43:35.830Z,28.80
2024-01-16T05:44:42.285Z,28.80
2024-01-16T05:45:47.252Z,28.80
2024-01-16T05:46:55.303Z,28.80
2024-01-16T05:47:59.117Z,28.80
2024-01-16T05:49:04.117Z,28.80
2024-01-16T05:50:14.864Z,28.80
2024-01-16T05:51:20.321Z,28.80
2024-01-16T05:52:28.952Z,28.80
2024-01-16T05:53:35.127Z,28.80
2024-01-16T05:54:42.327Z,28.80
2024-01-16T05:55:46.784Z,28.80
2024-01-16T05:56:52.928Z,28.80
2024-01-16T05:57:58.036Z,28.80
2024-01-16T05:59:02.978Z,28.80
2024-01-16T06:00:10.033Z,28.80
2024-01-16T06:01:17.601Z,28.80
2024-01-16T06:02:21.280Z,28.80
2024-01-16T06:03:25.471Z,28.80
2024-01-16T06:04:31.093Z,28.90
2024-01-16T06:05:39.194Z,28.80
2024-01-16T06:06:47.846Z,28.80
2024-01-16T06:08:06.866Z,28.90
2024-01-16T06:09:15.734Z,28.80
2024-01-16T06:10:18.939Z,28.90
2024-01-16T06:11:33.312Z,28.90
2024-01-16T06:12:39.040Z,28.80
2024-01-16T06:13:49.879Z,28.90
2024-01-16T06:15:00.415Z,28.90
2024-01-16T06:16:18.708Z,28.90
2024-01-16T06:17:27.853Z,28.90
2024-01-16T06:18:38.423Z,29.00
2024-01-16T06:20:00.404Z,29.00
2024-01-16T06:21:09.617Z,29.00
2024-01-16T06:22:23.456Z,29.00
2024-01-16T06:23:40.441Z,29.00
2024-01-16T06:25:23.574Z,29.10
2024-01-16T06:26:29.577Z,29.00
2024-01-16T06:27:35.960Z,29.10
2024-01-16T06:28:45.348Z,29.10
2024-01-16T06:30:02.787Z,29.10
2024-01-16T06:32:31.177Z,29.20
2024-01-16T06:33:36.841Z,29.20
2024-01-16T06:34:42.172Z,29.30
2024-01-16T06:35:51.034Z,29.30
2024-01-16T06:38:16.880Z,29.30
2024-01-16T06:42:08.990Z,29.30
2024-01-16T06:43:32.439Z,29.30
2024-01-16T06:44:47.566Z,29.40
2024-01-16T06:46:08.491Z,29.40
2024-01-16T06:47:20.292Z,29.40
2024-01-16T06:48:28.702Z,29.40
2024-01-16T06:49:33.440Z,29.40
2024-01-16T06:50:40.634Z,29.40
2024-01-16T06:52:07.350Z,29.50
2024-01-16T06:53:17.457Z,29.40
2024-01-16T06:54:24.676Z,29.40
2024-01-16T06:55:34.713Z,29.50
2024-01-16T06:56:49.457Z,29.50
2024-01-16T06:58:05.649Z,29.50
2024-01-16T06:59:12.335Z,29.40
2024-01-16T07:00:55.940Z,29.40
2024-01-16T07:03:38.642Z,29.40
2024-01-16T07:06:37.465Z,29.40
2024-01-16T07:07:43.027Z,29.50
2024-01-16T07:08:54.877Z,29.50
2024-01-16T07:09:58.500Z,29.50
2024-01-16T07:11:14.590Z,29.50
2024-01-16T07:12:19.472Z,29.50
2024-01-16T07:13:40.430Z,29.50
2024-01-16T07:14:45.566Z,29.50
2024-01-16T07:15:55.860Z,29.50
2024-01-16T07:17:04.941Z,29.40
2024-01-16T07:18:12.284Z,29.40
2024-01-16T07:19:19.675Z,29.90
2024-01-16T07:20:27.120Z,29.40
2024-01-16T07:21:35.369Z,29.90
2024-01-16T07:24:10.036Z,29.40
2024-01-16T07:25:15.103Z,29.40
2024-01-16T07:26:21.593Z,29.40
2024-01-16T07:27:28.896Z,29.40
2024-01-16T07:28:36.432Z,29.40
2024-01-16T07:29:43.658Z,29.40
2024-01-16T07:30:49.640Z,29.40
2024-01-16T07:31:54.714Z,29.40
2024-01-16T07:33:08.348Z,29.30
2024-01-16T07:34:14.190Z,29.30
2024-01-16T07:35:24.141Z,29.30
2024-01-16T07:36:39.447Z,29.30
2024-01-16T07:37:52.175Z,29.30
2024-01-16T07:38:59.061Z,29.30
2024-01-16T07:40:03.516Z,29.30
2024-01-16T07:41:10.823Z,29.30
2024-01-16T07:42:21.866Z,29.30
2024-01-16T07:43:29.512Z,29.20
2024-01-16T07:44:37.749Z,29.30
2024-01-16T07:45:41.536Z,29.40
2024-01-16T07:46:48.813Z,29.20
2024-01-16T07:48:08.309Z,29.20
2024-01-16T07:49:19.284Z,29.20
2024-01-16T07:50:33.445Z,29.20
2024-01-16T07:51:39.902Z,29.20
2024-01-16T07:52:46.067Z,29.20
2024-01-16T07:53:53.514Z,29.20
2024-01-16T07:55:02.640Z,29.10
2024-01-16T07:56:10.620Z,29.20
2024-01-16T07:57:32.440Z,29.10
2024-01-16T07:58:43.658Z,29.10
2024-01-16T07:59:52.770Z,29.10
2024-01-16T08:00:59.325Z,29.10
2024-01-16T08:02:02.955Z,29.10
2024-01-16T08:03:15.815Z,29.20
2024-01-16T08:04:23.968Z,29.10
2024-01-16T08:05:30.797Z,29.10
2024-01-16T08:06:44.477Z,29.10
2024-01-16T08:07:49.220Z,29.10
2024-01-16T08:08:54.221Z,29.10
2024-01-16T08:10:02.157Z,29.10
2024-01-16T08:11:07.355Z,29.10
2024-01-16T08:12:12.143Z,29.10
2024-01-16T08:13:15.927Z,29.20
2024-01-16T08:14:19.664Z,29.10
2024-01-16T08:15:25.870Z,29.10
2024-01-16T08:16:37.911Z,29.10
2024-01-16T08:17:45.152Z,29.60
2024-01-16T08:18:52.668Z,29.10
2024-01-16T08:19:59.183Z,29.10
2024-01-16T08:21:04.006Z,29.60
2024-01-16T08:22:09.515Z,29.10
2024-01-16T08:23:19.122Z,29.10
2024-01-16T08:24:24.723Z,29.10
2024-01-16T08:25:33.035Z,29.10
2024-01-16T08:26:37.402Z,29.10
2024-01-16T08:27:47.051Z,29.10
2024-01-16T08:30:28.394Z,29.10
2024-01-16T08:32:02.147Z,29.10
2024-01-16T08:33:07.680Z,29.10
2024-01-16T08:34:13.204Z,29.10
2024-01-16T08:35:20.738Z,29.10
2024-01-16T08:36:26.835Z,29.10
2024-01-16T08:37:34.496Z,29.10
2024-01-16T08:38:45.801Z,29.10
2024-01-16T08:39:56.379Z,29.10
2024-01-16T08:41:09.642Z,29.10
2024-01-16T08:42:16.094Z,29.10
2024-01-16T08:43:21.019Z,29.10
2024-01-16T08:44:30.374Z,29.10
2024-01-16T08:45:38.301Z,29.10
2024-01-16T08:46:43.069Z,29.10
2024-01-16T08:47:50.842Z,29.10
2024-01-16T08:48:59.492Z,29.00
2024-01-16T08:50:03.937Z,29.10
2024-01-16T08:51:13.740Z,29.10
2024-01-16T08:52:21.618Z,29.10
2024-01-16T08:53:26.280Z,29.10
2024-01-16T08:55:48.944Z,29.50
2024-01-16T08:56:54.154Z,28.90
2024-01-16T08:58:18.129Z,28.90
2024-01-16T08:59:21.860Z,28.90
2024-01-16T09:00:25.098Z,29.00
2024-01-16T09:01:28.139Z,28.90
2024-01-16T09:02:32.553Z,29.00
2024-01-16T09:03:38.054Z,29.00
2024-01-16T09:04:43.196Z,29.00
2024-01-16T09:05:52.115Z,29.00
2024-01-16T09:07:06.265Z,29.00
2024-01-16T09:08:13.768Z,29.10
2024-01-16T09:09:22.249Z,29.10
2024-01-16T09:10:31.645Z,29.10
2024-01-16T09:11:40.630Z,29.10
2024-01-16T09:13:04.372Z,29.10
2024-01-16T09:14:12.808Z,29.20
2024-01-16T09:15:18.399Z,29.20
2024-01-16T09:16:25.879Z,29.20
2024-01-16T09:17:29.487Z,29.20
2024-01-16T09:18:37.188Z,29.20
2024-01-16T09:19:43.367Z,29.20
2024-01-16T09:20:46.248Z,29.20
2024-01-16T09:21:53.040Z,29.20
2024-01-16T09:22:56.932Z,29.20
2024-01-16T09:24:00.490Z,29.20
2024-01-16T09:25:10.417Z,29.20
2024-01-16T09:26:33.722Z,29.20
2024-01-16T09:27:39.989Z,29.20
2024-01-16T09:28:48.269Z,29.20
2024-01-16T09:29:52.871Z,29.20
2024-01-16T09:30:58.601Z,29.20
2024-01-16T09:32:06.836Z,29.20
2024-01-16T09:33:15.971Z,29.30
2024-01-16T09:34:22.240Z,29.20
2024-01-16T09:35:26.634Z,29.20
2024-01-16T09:36:38.727Z,29.20
2024-01-16T09:37:44.443Z,29.20
2024-01-16T09:39:04.008Z,29.20
2024-01-16T09:40:26.312Z,29.20
2024-01-16T09:41:32.611Z,29.70
2024-01-16T09:42:40.526Z,29.20
2024-01-16T09:43:49.977Z,29.20
2024-01-16T09:44:56.734Z,29.20
2024-01-16T09:46:04.339Z,29.20
2024-01-16T09:47:10.891Z,29.20
2024-01-16T09:48:16.987Z,29.20
2024-01-16T09:49:22.050Z,29.20
2024-01-16T09:51:47.859Z,29.10
2024-01-16T09:52:55.636Z,29.10
2024-01-16T09:54:03.354Z,29.10
2024-01-16T09:55:08.426Z,29.10
2024-01-16T09:56:17.300Z,29.10
2024-01-16T09:57:24.409Z,29.10
2024-01-16T09:58:29.951Z,29.10
2024-01-16T09:59:41.185Z,29.10
2024-01-16T10:00:48.904Z,29.10
2024-01-16T10:01:56.816Z,29.10
2024-01-16T10:03:05.102Z,29.10
2024-01-16T10:04:12.039Z,29.00
2024-01-16T10:05:17.563Z,29.00
2024-01-16T10:06:26.861Z,29.00
2024-01-16T10:07:35.995Z,29.00
2024-01-16T10:08:40.317Z,29.00
2024-01-16T10:09:45.877Z,29.00
2024-01-16T10:12:08.081Z,29.00
2024-01-16T10:13:13.564Z,29.40
2024-01-16T10:15:44.090Z,28.90
2024-01-16T10:17:07.763Z,28.90
2024-01-16T10:18:25.708Z,28.90
2024-01-16T10:19:42.336Z,28.90
2024-01-16T10:20:50.253Z,28.90
2024-01-16T10:21:54.902Z,29.00
2024-01-16T10:23:00.410Z,29.00
2024-01-16T10:24:37.000Z,28.90
2024-01-16T10:25:44.147Z,28.90
2024-01-16T10:28:25.913Z,29.00
2024-01-16T10:29:43.195Z,28.90
2024-01-16T10:31:04.675Z,28.90
2024-01-16T10:32:14.222Z,28.90
2024-01-16T10:33:30.070Z,28.90
2024-01-16T10:34:35.593Z,28.90
2024-01-16T10:35:39.123Z,28.90
2024-01-16T10:36:42.982Z,28.90
2024-01-16T10:37:59.165Z,29.00
2024-01-16T10:39:18.360Z,28.90
2024-01-16T10:40:29.424Z,28.90
2024-01-16T10:41:34.327Z,28.90
2024-01-16T10:42:39.771Z,28.90
2024-01-16T10:43:46.511Z,28.90
2024-01-16T10:44:57.050Z,29.00
2024-01-16T10:46:10.414Z,29.00
2024-01-16T10:47:16.936Z,28.90
2024-01-16T10:48:20.330Z,28.90
2024-01-16T10:49:25.081Z,28.90
2024-01-16T10:50:33.270Z,28.90
2024-01-16T10:51:39.959Z,29.00
2024-01-16T10:52:51.943Z,28.90
2024-01-16T10:54:04.831Z,28.90
2024-01-16T10:55:11.186Z,28.90
2024-01-16T10:56:16.983Z,28.90
2024-01-16T10:57:20.657Z,28.90
2024-01-16T10:58:31.572Z,28.90
2024-01-16T10:59:48.072Z,28.90
2024-01-16T11:00:59.054Z,29.40
2024-01-16T11:02:06.141Z,28.90
2024-01-16T11:03:17.133Z,28.90
2024-01-16T11:04:29.644Z,29.40
2024-01-16T11:05:39.024Z,28.90
2024-01-16T11:06:43.682Z,28.90
2024-01-16T11:07:52.657Z,28.90
2024-01-16T11:08:59.545Z,28.90
2024-01-16T11:10:04.250Z,28.90
2024-01-16T11:11:11.263Z,28.90
2024-01-16T11:12:18.244Z,29.00
2024-01-16T11:13:25.101Z,28.90
2024-01-16T11:14:32.162Z,28.90
2024-01-16T11:15:43.224Z,28.90
2024-01-16T11:16:48.798Z,28.90
2024-01-16T11:17:55.964Z,28.90
2024-01-16T11:19:18.447Z,28.90
2024-01-16T11:20:41.335Z,28.90
2024-01-16T11:21:51.809Z,28.90
2024-01-16T11:23:01.168Z,28.90
2024-01-16T11:24:04.533Z,28.90
2024-01-16T11:25:11.972Z,28.90
2024-01-16T11:26:35.554Z,28.90
2024-01-16T11:27:42.760Z,28.80
2024-01-16T11:28:47.032Z,28.90
2024-01-16T11:29:56.418Z,28.90
2024-01-16T11:31:32.179Z,28.80
2024-01-16T11:32:41.917Z,28.80
2024-01-16T11:33:47.941Z,28.80
2024-01-16T11:34:54.880Z,28.80
2024-01-16T11:35:58.538Z,28.80
2024-01-16T11:37:09.868Z,28.80
2024-01-16T11:38:23.652Z,28.80
2024-01-16T11:39:28.723Z,28.80
2024-01-16T11:40:34.179Z,28.80
2024-01-16T11:41:53.251Z,28.80
2024-01-16T11:42:58.033Z,28.80
2024-01-16T11:44:03.221Z,28.80
2024-01-16T11:45:10.607Z,28.80
2024-01-16T11:46:13.609Z,29.20
2024-01-16T11:47:27.720Z,28.80
2024-01-16T11:48:33.564Z,28.70
2024-01-16T11:49:40.546Z,28.70
2024-01-16T11:50:46.303Z,28.80
2024-01-16T11:51:49.594Z,28.70
2024-01-16T11:52:54.870Z,28.80
2024-01-16T11:54:00.376Z,28.70
2024-01-16T11:55:28.161Z,28.70
2024-01-16T11:56:49.256Z,28.70
2024-01-16T11:58:15.248Z,28.70
2024-01-16T12:00:07.037Z,28.70
2024-01-16T12:01:17.928Z,28.70
2024-01-16T12:02:26.055Z,28.70
2024-01-16T12:04:55.646Z,28.70
2024-01-16T12:06:05.464Z,28.70
2024-01-16T12:07:10.399Z,28.70
2024-01-16T12:08:15.122Z,28.60
2024-01-16T12:09:21.376Z,28.60
2024-01-16T12:10:28.130Z,28.70
2024-01-16T12:11:42.791Z,28.60
2024-01-16T12:12:50.381Z,28.60
2024-01-16T12:14:05.903Z,28.60
2024-01-16T12:15:22.889Z,28.60
2024-01-16T12:16:28.501Z,28.60
2024-01-16T12:17:31.576Z,28.60
2024-01-16T12:18:42.833Z,28.60
2024-01-16T12:19:51.250Z,28.60
2024-01-16T12:20:57.017Z,28.60
2024-01-16T12:22:01.140Z,28.60
2024-01-16T12:23:07.520Z,28.60
2024-01-16T12:24:18.331Z,28.60
2024-01-16T12:25:23.309Z,28.60
2024-01-16T12:26:27.867Z,28.60
2024-01-16T12:27:32.422Z,28.60
2024-01-16T12:28:35.455Z,28.60
2024-01-16T12:29:58.417Z,28.60
2024-01-16T12:31:02.916Z,28.60
2024-01-16T12:32:11.556Z,28.60
2024-01-16T12:33:16.040Z,28.60
2024-01-16T12:34:24.506Z,28.60
2024-01-16T12:35:27.580Z,28.60
2024-01-16T12:36:36.923Z,28.60
2024-01-16T12:38:02.674Z,28.60
2024-01-16T12:39:13.567Z,28.60
2024-01-16T12:41:48.167Z,28.60
2024-01-16T12:42:52.161Z,28.60
2024-01-16T12:44:04.907Z,28.60
2024-01-16T12:45:22.935Z,28.60
2024-01-16T12:46:27.190Z,28.60
2024-01-16T12:47:36.074Z,28.60
2024-01-16T12:49:00.659Z,28.60
2024-01-16T12:50:15.646Z,28.60
2024-01-16T12:51:28.213Z,28.60
2024-01-16T12:52:34.357Z,28.60
2024-01-16T12:53:57.616Z,28.60
2024-01-16T12:55:08.893Z,28.60
2024-01-16T12:56:16.140Z,28.60
2024-01-16T12:57:22.212Z,28.60
2024-01-16T12:58:29.078Z,28.60
2024-01-16T12:59:54.215Z,28.60
2024-01-16T13:00:58.517Z,28.50
2024-01-16T13:02:05.354Z,28.60
2024-01-16T13:03:15.533Z,28.60
2024-01-16T13:04:41.192Z,28.60
2024-01-16T13:05:48.426Z,28.60
2024-01-16T13:07:05.299Z,28.60
2024-01-16T13:08:08.057Z,28.60
2024-01-16T13:09:24.201Z,28.60
2024-01-16T13:10:31.930Z,28.60
2024-01-16T13:11:57.172Z,28.60
2024-01-16T13:13:18.017Z,28.60
2024-01-16T13:14:24.281Z,28.60
2024-01-16T13:15:30.522Z,28.60
2024-01-16T13:16:56.017Z,28.60
2024-01-16T13:18:02.318Z,28.60
2024-01-16T13:19:11.299Z,28.60
2024-01-16T13:21:56.317Z,28.60
2024-01-16T13:22:59.603Z,28.60
2024-01-16T13:24:06.177Z,28.60
2024-01-16T13:25:15.743Z,28.60
2024-01-16T13:26:22.725Z,28.60
2024-01-16T13:27:29.424Z,28.60
2024-01-16T13:28:35.608Z,28.60
2024-01-16T13:29:41.443Z,28.60
2024-01-16T13:30:50.254Z,28.60
2024-01-16T13:31:57.526Z,28.70
2024-01-16T13:33:02.870Z,28.60
2024-01-16T13:34:06.054Z,28.60
2024-01-16T13:35:12.454Z,28.60
2024-01-16T13:36:28.311Z,28.60
2024-01-16T13:37:45.954Z,28.60
2024-01-16T13:39:14.556Z,28.60
2024-01-16T13:40:22.575Z,28.60
2024-01-16T13:41:27.198Z,28.60
2024-01-16T13:42:31.421Z,28.70
2024-01-16T13:43:35.585Z,28.60
2024-01-16T13:44:43.002Z,28.70
2024-01-16T13:45:46.405Z,28.60
2024-01-16T13:46:58.205Z,28.70
2024-01-16T13:48:17.770Z,28.70
2024-01-16T13:49:21.983Z,28.60
2024-01-16T13:50:27.819Z,28.60
2024-01-16T13:51:32.409Z,28.70
2024-01-16T13:52:39.017Z,28.70
2024-01-16T13:54:02.328Z,28.70
2024-01-16T13:55:13.124Z,28.60
2024-01-16T13:56:18.378Z,28.60
2024-01-16T13:57:24.220Z,29.10
2024-01-16T13:58:29.165Z,28.60
2024-01-16T13:59:37.687Z,28.60
2024-01-16T14:00:42.069Z,28.60
2024-01-16T14:01:46.177Z,28.70
2024-01-16T14:02:50.440Z,28.70
2024-01-16T14:03:54.236Z,28.70
2024-01-16T14:04:58.651Z,28.60
2024-01-16T14:06:08.507Z,28.70
2024-01-16T14:07:14.325Z,28.70
2024-01-16T14:08:21.298Z,28.70
2024-01-16T14:09:26.857Z,28.70
2024-01-16T14:10:30.785Z,28.60
2024-01-16T14:11:34.084Z,28.70
2024-01-16T14:12:38.155Z,28.70
2024-01-16T14:13:42.138Z,28.70
2024-01-16T14:14:49.948Z,28.70
2024-01-16T14:15:55.219Z,28.70
2024-01-16T14:17:01.421Z,28.70
2024-01-16T14:18:06.696Z,28.70
2024-01-16T14:19:11.745Z,28.70
2024-01-16T14:20:19.176Z,28.70
2024-01-16T14:21:22.234Z,28.70
2024-01-16T14:22:26.904Z,28.70
2024-01-16T14:23:30.820Z,28.70
2024-01-16T14:24:39.231Z,28.70
2024-01-16T14:25:43.722Z,28.70
2024-01-16T14:26:47.177Z,28.70
2024-01-16T14:28:05.575Z,28.70
2024-01-16T14:29:10.154Z,28.70
2024-01-16T14:30:15.195Z,28.70
2024-01-16T14:31:19.284Z,28.70
2024-01-16T14:32:24.660Z,28.70
2024-01-16T14:33:32.101Z,28.70
2024-01-16T14:35:04.037Z,28.70
2024-01-16T14:36:32.647Z,28.70
2024-01-16T14:37:40.499Z,28.70
2024-01-16T14:38:54.549Z,28.70
2024-01-16T14:40:08.525Z,28.80
2024-01-16T14:42:54.840Z,28.80
2024-01-16T14:44:01.013Z,28.90
2024-01-16T14:45:09.890Z,28.90
2024-01-16T14:46:36.516Z,28.90
2024-01-16T14:47:42.074Z,29.00
2024-01-16T14:48:53.013Z,29.00
2024-01-16T14:50:00.339Z,29.10
2024-01-16T14:51:05.158Z,29.10
2024-01-16T14:52:21.900Z,29.10
2024-01-16T14:53:26.242Z,29.00
2024-01-16T14:54:30.444Z,29.20
2024-01-16T14:55:35.256Z,29.20
2024-01-16T14:56:38.682Z,29.20
2024-01-16T14:57:51.306Z,29.20
2024-01-16T14:58:55.831Z,29.20
2024-01-16T15:00:02.158Z,29.20
2024-01-16T15:01:15.783Z,29.20
2024-01-16T15:02:26.769Z,29.20
2024-01-16T15:03:34.185Z,29.20
2024-01-16T15:04:37.848Z,29.20
2024-01-16T15:05:41.155Z,29.20
2024-01-16T15:06:48.686Z,29.20
2024-01-16T15:08:00.285Z,29.20
2024-01-16T15:09:07.091Z,29.20